createdAt,value
2022-08-26T00:00:14.471Z,26.56
2022-08-26T00:00:44.455Z,26.56
2022-08-26T00:01:15.442Z,26.57
2022-08-26T00:01:45.436Z,26.56
2022-08-26T00:02:15.707Z,26.56
2022-08-26T00:02:49.330Z,26.56
2022-08-26T00:03:19.330Z,26.53
2022-08-26T00:03:49.332Z,26.56
2022-08-26T00:04:19.512Z,26.53
2022-08-26T00:04:49.516Z,26.53
2022-08-26T00:05:19.712Z,26.53
2022-08-26T00:05:49.706Z,26.56
2022-08-26T00:06:20.889Z,26.53
2022-08-26T00:06:50.980Z,26.56
2022-08-26T00:07:20.982Z,26.52
2022-08-26T00:07:50.973Z,26.53
2022-08-26T00:08:21.359Z,26.53
2022-08-26T00:08:51.343Z,26.56
2022-08-26T00:09:21.514Z,26.56
2022-08-26T00:09:54.516Z,26.57
2022-08-26T00:10:25.877Z,26.53
2022-08-26T00:10:55.931Z,26.56
2022-08-26T00:11:29.885Z,26.53
2022-08-26T00:11:59.928Z,26.53
2022-08-26T00:12:36.005Z,26.53
2022-08-26T00:13:05.662Z,26.53
2022-08-26T00:13:36.281Z,26.53
2022-08-26T00:14:06.274Z,26.53
2022-08-26T00:14:36.282Z,26.52
2022-08-26T00:15:06.262Z,26.53
2022-08-26T00:16:14.271Z,26.53
2022-08-26T00:16:47.283Z,26.52
2022-08-26T00:17:18.255Z,26.53
2022-08-26T00:17:49.502Z,26.52
2022-08-26T00:18:22.615Z,26.53
2022-08-26T00:18:52.769Z,26.53
2022-08-26T00:19:22.774Z,26.53
2022-08-26T00:19:53.193Z,26.52
2022-08-26T00:20:23.351Z,26.52
2022-08-26T00:20:53.628Z,26.52
2022-08-26T00:21:23.626Z,26.53
2022-08-26T00:21:53.612Z,26.52
2022-08-26T00:22:23.624Z,26.53
2022-08-26T00:22:54.501Z,26.51
2022-08-26T00:23:24.492Z,26.53
2022-08-26T00:23:54.511Z,26.52
2022-08-26T00:24:24.507Z,26.52
2022-08-26T00:24:55.376Z,26.52
2022-08-26T00:25:25.358Z,26.51
2022-08-26T00:25:55.341Z,26.52
2022-08-26T00:26:28.367Z,26.52
2022-08-26T00:26:58.567Z,26.52
2022-08-26T00:27:28.577Z,26.51
2022-08-26T00:27:58.585Z,26.51
2022-08-26T00:28:28.566Z,26.53
2022-08-26T00:28:58.558Z,26.52
2022-08-26T00:29:28.542Z,26.53
2022-08-26T00:30:01.890Z,26.51
2022-08-26T00:30:31.896Z,26.52
2022-08-26T00:31:01.873Z,26.51
2022-08-26T00:31:31.912Z,26.52
2022-08-26T00:32:02.082Z,26.51
2022-08-26T00:32:34.104Z,26.52
2022-08-26T00:33:04.561Z,26.51
2022-08-26T00:33:35.467Z,26.52
2022-08-26T00:34:05.451Z,26.49
2022-08-26T00:34:35.455Z,26.51
2022-08-26T00:35:05.464Z,26.51
2022-08-26T00:35:36.201Z,26.51
2022-08-26T00:36:06.211Z,26.51
2022-08-26T00:36:36.204Z,26.51
2022-08-26T00:37:08.937Z,26.49
2022-08-26T00:37:40.341Z,26.48
2022-08-26T00:38:10.336Z,26.49
2022-08-26T00:38:40.774Z,26.51
2022-08-26T00:39:12.187Z,26.49
2022-08-26T00:39:42.173Z,26.48
2022-08-26T00:40:12.537Z,26.49
2022-08-26T00:40:42.546Z,26.49
2022-08-26T00:41:12.548Z,26.48
2022-08-26T00:41:42.619Z,26.49
2022-08-26T00:42:12.616Z,26.49
2022-08-26T00:42:46.087Z,26.51
2022-08-26T00:43:16.220Z,26.48
2022-08-26T00:43:47.963Z,26.49
2022-08-26T00:44:18.077Z,26.48
2022-08-26T00:44:48.064Z,26.49
2022-08-26T00:45:20.702Z,26.48
2022-08-26T00:45:51.922Z,26.49
2022-08-26T00:46:21.958Z,26.49
2022-08-26T00:46:52.458Z,26.49
2022-08-26T00:47:23.924Z,26.48
2022-08-26T00:47:53.930Z,26.49
2022-08-26T00:48:23.908Z,26.49
2022-08-26T00:48:54.232Z,26.49
2022-08-26T00:49:24.591Z,26.48
2022-08-26T00:49:54.565Z,26.48
2022-08-26T00:50:24.548Z,26.48
2022-08-26T00:50:55.245Z,26.48
2022-08-26T00:51:29.669Z,26.46
2022-08-26T00:52:00.114Z,26.48
2022-08-26T00:52:30.197Z,26.46
2022-08-26T00:53:00.184Z,26.46
2022-08-26T00:53:30.193Z,26.46
2022-08-26T00:54:02.222Z,26.48
2022-08-26T00:54:33.625Z,26.46
2022-08-26T00:55:03.611Z,26.49
2022-08-26T00:55:37.856Z,26.48
2022-08-26T00:56:08.296Z,26.49
2022-08-26T00:56:38.284Z,26.48
2022-08-26T00:57:08.675Z,26.48
2022-08-26T00:57:43.224Z,26.46
2022-08-26T00:58:15.218Z,26.48
2022-08-26T00:58:45.218Z,26.48
2022-08-26T00:59:15.198Z,26.48
2022-08-26T00:59:47.862Z,26.45
2022-08-26T01:00:18.185Z,26.46
2022-08-26T01:00:48.213Z,26.46
2022-08-26T01:01:18.354Z,26.48
2022-08-26T01:01:53.153Z,26.45
2022-08-26T01:02:23.318Z,26.46
2022-08-26T01:02:53.318Z,26.48
2022-08-26T01:03:23.325Z,26.48
2022-08-26T01:03:54.341Z,26.48
2022-08-26T01:04:26.149Z,26.48
2022-08-26T01:04:56.534Z,26.46
2022-08-26T01:05:26.551Z,26.46
2022-08-26T01:05:56.543Z,26.45
2022-08-26T01:06:26.525Z,26.45
2022-08-26T01:06:56.524Z,26.46
2022-08-26T01:07:27.534Z,26.46
2022-08-26T01:08:00.384Z,26.46
2022-08-26T01:08:33.617Z,26.46
2022-08-26T01:09:03.612Z,26.46
2022-08-26T01:09:33.660Z,26.45
2022-08-26T01:10:03.797Z,26.46
2022-08-26T01:10:33.836Z,26.46
2022-08-26T01:11:03.819Z,26.46
2022-08-26T01:11:34.336Z,26.46
2022-08-26T01:12:04.358Z,26.45
2022-08-26T01:12:34.352Z,26.45
2022-08-26T01:13:04.440Z,26.45
2022-08-26T01:13:34.487Z,26.45
2022-08-26T01:14:04.683Z,26.45
2022-08-26T01:14:36.700Z,26.45
2022-08-26T01:15:06.828Z,26.45
2022-08-26T01:15:36.856Z,26.45
2022-08-26T01:16:06.894Z,26.43
2022-08-26T01:16:36.989Z,26.45
2022-08-26T01:17:07.187Z,26.43
2022-08-26T01:17:37.266Z,26.45
2022-08-26T01:18:07.459Z,26.43
2022-08-26T01:18:37.459Z,26.45
2022-08-26T01:19:07.449Z,26.45
2022-08-26T01:19:37.453Z,26.45
2022-08-26T01:20:09.863Z,26.45
2022-08-26T01:20:42.568Z,26.45
2022-08-26T01:21:12.551Z,26.43
2022-08-26T01:21:42.555Z,26.43
2022-08-26T01:22:12.562Z,26.43
2022-08-26T01:22:42.554Z,26.46
2022-08-26T01:23:13.865Z,26.45
2022-08-26T01:23:45.026Z,26.45
2022-08-26T01:24:15.194Z,26.43
2022-08-26T01:24:45.339Z,26.43
2022-08-26T01:25:17.894Z,26.42
2022-08-26T01:25:47.888Z,26.43
2022-08-26T01:26:19.921Z,26.42
2022-08-26T01:26:50.120Z,26.43
2022-08-26T01:27:20.126Z,26.42
2022-08-26T01:27:50.134Z,26.42
2022-08-26T01:28:20.703Z,26.41
2022-08-26T01:28:51.758Z,26.42
2022-08-26T01:29:21.918Z,26.42
2022-08-26T01:29:52.291Z,26.42
2022-08-26T01:30:23.447Z,26.42
2022-08-26T01:30:53.450Z,26.42
2022-08-26T01:31:23.670Z,26.43
2022-08-26T01:31:53.772Z,26.42
2022-08-26T01:32:23.773Z,26.42
2022-08-26T01:32:53.773Z,26.42
2022-08-26T01:33:23.765Z,26.41
2022-08-26T01:33:53.747Z,26.42
2022-08-26T01:34:23.729Z,26.42
2022-08-26T01:34:54.832Z,26.42
2022-08-26T01:35:24.815Z,26.41
2022-08-26T01:35:54.804Z,26.41
2022-08-26T01:36:24.807Z,26.41
2022-08-26T01:36:54.815Z,26.42
2022-08-26T01:37:24.809Z,26.42
2022-08-26T01:37:54.793Z,26.42
2022-08-26T01:38:24.777Z,26.41
2022-08-26T01:38:55.283Z,26.41
2022-08-26T01:39:25.344Z,26.41
2022-08-26T01:39:55.410Z,26.41
2022-08-26T01:40:25.434Z,26.39
2022-08-26T01:40:55.462Z,26.42
2022-08-26T01:41:29.219Z,26.41
2022-08-26T01:42:03.031Z,26.41
2022-08-26T01:42:33.335Z,26.39
2022-08-26T01:43:03.324Z,26.41
2022-08-26T01:43:33.324Z,26.41
2022-08-26T01:44:03.556Z,26.41
2022-08-26T01:44:33.548Z,26.41
2022-08-26T01:45:03.543Z,26.39
2022-08-26T01:45:34.328Z,26.39
2022-08-26T01:46:04.395Z,26.41
2022-08-26T01:46:34.409Z,26.39
2022-08-26T01:47:05.213Z,26.39
2022-08-26T01:47:36.533Z,26.41
2022-08-26T01:48:07.100Z,26.42
2022-08-26T01:48:37.915Z,26.41
2022-08-26T01:49:07.928Z,26.39
2022-08-26T01:49:37.915Z,26.39
2022-08-26T01:50:07.981Z,26.39
2022-08-26T01:50:37.964Z,26.41
2022-08-26T01:51:07.986Z,26.39
2022-08-26T01:51:37.992Z,26.39
2022-08-26T01:52:08.938Z,26.41
2022-08-26T01:52:40.900Z,26.39
2022-08-26T01:53:12.703Z,26.39
2022-08-26T01:53:42.703Z,26.39
2022-08-26T01:54:16.852Z,26.39
2022-08-26T01:54:51.065Z,26.38
2022-08-26T01:55:32.023Z,26.39
2022-08-26T01:55:56.051Z,26.39
2022-08-26T01:56:26.061Z,26.41
2022-08-26T01:57:01.035Z,26.41
2022-08-26T01:57:32.026Z,26.39
2022-08-26T01:58:02.049Z,26.41
2022-08-26T01:58:32.062Z,26.39
2022-08-26T01:59:02.110Z,26.39
2022-08-26T01:59:32.112Z,26.41
2022-08-26T02:00:02.161Z,26.39
2022-08-26T02:00:32.308Z,26.39
2022-08-26T02:01:02.542Z,26.39
2022-08-26T02:01:32.610Z,26.41
2022-08-26T02:02:02.673Z,26.39
2022-08-26T02:02:32.690Z,26.39
2022-08-26T02:03:03.104Z,26.38
2022-08-26T02:03:33.253Z,26.39
2022-08-26T02:04:08.106Z,26.38
2022-08-26T02:04:38.182Z,26.36
2022-08-26T02:05:08.208Z,26.36
2022-08-26T02:05:38.211Z,26.38
2022-08-26T02:06:09.152Z,26.36
2022-08-26T02:06:39.472Z,26.38
2022-08-26T02:07:09.861Z,26.36
2022-08-26T02:07:39.847Z,26.36
2022-08-26T02:08:09.859Z,26.38
2022-08-26T02:08:40.020Z,26.36
2022-08-26T02:09:10.009Z,26.36
2022-08-26T02:09:41.406Z,26.36
2022-08-26T02:10:11.599Z,26.36
2022-08-26T02:10:41.600Z,26.38
2022-08-26T02:11:12.699Z,26.36
2022-08-26T02:11:42.684Z,26.36
2022-08-26T02:12:12.687Z,26.36
2022-08-26T02:12:42.669Z,26.36
2022-08-26T02:13:12.670Z,26.34
2022-08-26T02:13:43.875Z,26.36
2022-08-26T02:14:13.858Z,26.36
2022-08-26T02:14:44.454Z,26.34
2022-08-26T02:15:14.564Z,26.36
2022-08-26T02:15:47.233Z,26.36
2022-08-26T02:16:17.329Z,26.34
2022-08-26T02:16:47.621Z,26.36
2022-08-26T02:17:18.021Z,26.34
2022-08-26T02:17:52.608Z,26.34
2022-08-26T02:18:22.929Z,26.34
2022-08-26T02:18:53.420Z,26.34
2022-08-26T02:19:23.546Z,26.33
2022-08-26T02:19:53.533Z,26.34
2022-08-26T02:20:23.542Z,26.33
2022-08-26T02:20:53.554Z,26.33
2022-08-26T02:21:24.908Z,26.33
2022-08-26T02:21:55.103Z,26.34
2022-08-26T02:22:25.113Z,26.33
2022-08-26T02:22:55.139Z,26.34
2022-08-26T02:23:25.149Z,26.33
2022-08-26T02:23:56.020Z,26.33
2022-08-26T02:24:27.401Z,26.33
2022-08-26T02:24:57.757Z,26.33
2022-08-26T02:25:27.777Z,26.33
2022-08-26T02:25:57.776Z,26.33
2022-08-26T02:26:27.764Z,26.33
2022-08-26T02:26:57.858Z,26.33
2022-08-26T02:27:28.089Z,26.33
2022-08-26T02:27:58.242Z,26.33
2022-08-26T02:28:28.241Z,26.33
2022-08-26T02:28:58.610Z,26.33
2022-08-26T02:29:28.606Z,26.33
2022-08-26T02:29:58.596Z,26.33
2022-08-26T02:30:28.943Z,26.33
2022-08-26T02:30:59.048Z,26.33
2022-08-26T02:31:29.324Z,26.31
2022-08-26T02:31:59.574Z,26.33
2022-08-26T02:32:29.556Z,26.33
2022-08-26T02:32:59.958Z,26.33
2022-08-26T02:33:29.941Z,26.33
2022-08-26T02:34:00.430Z,26.33
2022-08-26T02:34:31.366Z,26.31
2022-08-26T02:35:01.455Z,26.31
2022-08-26T02:35:31.462Z,26.31
2022-08-26T02:36:01.646Z,26.31
2022-08-26T02:36:31.648Z,26.31
2022-08-26T02:37:01.653Z,26.31
2022-08-26T02:37:31.646Z,26.30
2022-08-26T02:38:09.951Z,26.31
2022-08-26T02:38:38.928Z,26.31
2022-08-26T02:39:09.738Z,26.30
2022-08-26T02:39:39.734Z,26.31
2022-08-26T02:40:09.802Z,26.31
2022-08-26T02:40:39.846Z,26.31
2022-08-26T02:41:10.019Z,26.31
2022-08-26T02:41:44.779Z,26.31
2022-08-26T02:42:15.277Z,26.31
2022-08-26T02:42:45.283Z,26.28
2022-08-26T02:43:15.283Z,26.31
2022-08-26T02:43:45.306Z,26.31
2022-08-26T02:44:15.297Z,26.31
2022-08-26T02:44:45.294Z,26.28
2022-08-26T02:45:16.332Z,26.30
2022-08-26T02:45:50.243Z,26.30
2022-08-26T02:46:21.542Z,26.30
2022-08-26T02:46:55.206Z,26.31
2022-08-26T02:47:25.213Z,26.30
2022-08-26T02:47:59.621Z,26.30
2022-08-26T02:48:29.740Z,26.30
2022-08-26T02:48:59.756Z,26.30
2022-08-26T02:49:29.757Z,26.31
2022-08-26T02:49:59.743Z,26.28
2022-08-26T02:50:29.730Z,26.28
2022-08-26T02:50:59.734Z,26.28
2022-08-26T02:51:29.739Z,26.30
2022-08-26T02:51:59.737Z,26.27
2022-08-26T02:52:31.929Z,26.30
2022-08-26T02:53:02.291Z,26.28
2022-08-26T02:53:35.666Z,26.28
2022-08-26T02:54:05.721Z,26.28
2022-08-26T02:54:35.704Z,26.28
2022-08-26T02:55:05.988Z,26.28
2022-08-26T02:55:35.988Z,26.30
2022-08-26T02:56:05.984Z,26.28
2022-08-26T02:56:35.958Z,26.28
2022-08-26T02:57:05.962Z,26.28
2022-08-26T02:57:36.739Z,26.30
2022-08-26T02:58:07.824Z,26.27
2022-08-26T02:58:37.814Z,26.30
2022-08-26T02:59:07.821Z,26.30
2022-08-26T02:59:38.943Z,26.27
2022-08-26T03:00:08.951Z,26.28
2022-08-26T03:00:39.017Z,26.28
2022-08-26T03:01:13.945Z,26.28
2022-08-26T03:01:44.000Z,26.28
2022-08-26T03:02:14.073Z,26.28
2022-08-26T03:02:44.087Z,26.30
2022-08-26T03:03:14.173Z,26.28
2022-08-26T03:03:44.175Z,26.28
2022-08-26T03:04:14.174Z,26.27
2022-08-26T03:04:58.124Z,26.27
2022-08-26T03:05:20.164Z,26.27
2022-08-26T03:05:50.162Z,26.28
2022-08-26T03:06:20.147Z,26.28
2022-08-26T03:06:52.619Z,26.26
2022-08-26T03:07:22.967Z,26.27
2022-08-26T03:07:52.949Z,26.27
2022-08-26T03:08:23.940Z,26.26
2022-08-26T03:08:55.324Z,26.27
2022-08-26T03:09:25.612Z,26.27
2022-08-26T03:09:55.952Z,26.27
2022-08-26T03:10:26.618Z,26.27
2022-08-26T03:10:57.231Z,26.26
2022-08-26T03:11:30.944Z,26.27
2022-08-26T03:12:02.138Z,26.27
2022-08-26T03:12:32.117Z,26.26
2022-08-26T03:13:05.112Z,26.27
2022-08-26T03:13:35.377Z,26.26
2022-08-26T03:14:05.422Z,26.26
2022-08-26T03:14:35.889Z,26.24
2022-08-26T03:15:15.957Z,26.24
2022-08-26T03:15:40.784Z,26.23
2022-08-26T03:16:10.897Z,26.23
2022-08-26T03:16:40.914Z,26.23
2022-08-26T03:17:11.677Z,26.26
2022-08-26T03:17:41.659Z,26.23
2022-08-26T03:18:12.481Z,26.24
2022-08-26T03:18:42.460Z,26.23
2022-08-26T03:19:12.458Z,26.24
2022-08-26T03:19:42.436Z,26.23
2022-08-26T03:20:13.629Z,26.23
2022-08-26T03:20:45.501Z,26.23
2022-08-26T03:21:15.498Z,26.23
2022-08-26T03:21:47.310Z,26.23
2022-08-26T03:22:17.532Z,26.23
2022-08-26T03:22:47.517Z,26.23
2022-08-26T03:23:18.770Z,26.21
2022-08-26T03:23:48.775Z,26.20
2022-08-26T03:24:18.754Z,26.23
2022-08-26T03:24:48.739Z,26.21
2022-08-26T03:25:18.760Z,26.21
2022-08-26T03:25:48.741Z,26.21
2022-08-26T03:26:18.748Z,26.23
2022-08-26T03:26:52.183Z,26.21
2022-08-26T03:27:22.969Z,26.23
2022-08-26T03:27:52.942Z,26.21
2022-08-26T03:28:22.914Z,26.23
2022-08-26T03:28:57.082Z,26.20
2022-08-26T03:29:28.411Z,26.23
2022-08-26T03:30:02.946Z,26.21
2022-08-26T03:30:32.930Z,26.23
2022-08-26T03:31:03.158Z,26.21
2022-08-26T03:31:33.236Z,26.23
2022-08-26T03:32:03.264Z,26.23
2022-08-26T03:32:33.244Z,26.21
2022-08-26T03:33:03.229Z,26.20
2022-08-26T03:33:33.834Z,26.21
2022-08-26T03:34:03.810Z,26.21
2022-08-26T03:34:34.068Z,26.21
2022-08-26T03:35:04.056Z,26.20
2022-08-26T03:35:34.046Z,26.20
2022-08-26T03:36:04.033Z,26.20
2022-08-26T03:36:35.157Z,26.20
2022-08-26T03:37:05.195Z,26.21
2022-08-26T03:37:35.308Z,26.21
2022-08-26T03:38:05.290Z,26.21
2022-08-26T03:38:35.284Z,26.21
2022-08-26T03:39:05.263Z,26.21
2022-08-26T03:39:35.246Z,26.21
2022-08-26T03:40:05.301Z,26.21
2022-08-26T03:40:35.370Z,26.21
2022-08-26T03:41:05.433Z,26.20
2022-08-26T03:41:36.909Z,26.20
2022-08-26T03:42:07.420Z,26.20
2022-08-26T03:42:37.605Z,26.21
2022-08-26T03:43:09.499Z,26.20
2022-08-26T03:43:40.111Z,26.21
2022-08-26T03:44:10.431Z,26.20
2022-08-26T03:44:42.262Z,26.21
2022-08-26T03:45:12.339Z,26.21
2022-08-26T03:45:42.573Z,26.20
2022-08-26T03:46:12.653Z,26.19
2022-08-26T03:46:42.971Z,26.20
2022-08-26T03:47:14.089Z,26.19
2022-08-26T03:47:44.080Z,26.21
2022-08-26T03:48:14.073Z,26.19
2022-08-26T03:48:44.055Z,26.20
2022-08-26T03:49:15.213Z,26.19
2022-08-26T03:49:45.247Z,26.20
2022-08-26T03:50:15.224Z,26.19
2022-08-26T03:50:45.214Z,26.20
2022-08-26T03:51:18.366Z,26.19
2022-08-26T03:51:49.052Z,26.19
2022-08-26T03:52:20.093Z,26.19
2022-08-26T03:52:50.075Z,26.19
2022-08-26T03:53:20.646Z,26.16
2022-08-26T03:53:50.668Z,26.19
2022-08-26T03:54:20.652Z,26.19
2022-08-26T03:54:50.634Z,26.19
2022-08-26T03:55:20.618Z,26.16
2022-08-26T03:55:53.777Z,26.19
2022-08-26T03:56:23.785Z,26.16
2022-08-26T03:56:53.808Z,26.19
2022-08-26T03:57:23.795Z,26.19
2022-08-26T03:57:53.782Z,26.19
2022-08-26T03:58:23.766Z,26.16
2022-08-26T03:58:53.748Z,26.16
2022-08-26T03:59:23.730Z,26.16
2022-08-26T03:59:54.553Z,26.19
2022-08-26T04:00:24.542Z,26.16
2022-08-26T04:00:55.766Z,26.16
2022-08-26T04:01:25.907Z,26.16
2022-08-26T04:01:56.025Z,26.16
2022-08-26T04:02:26.141Z,26.19
2022-08-26T04:02:56.277Z,26.19
2022-08-26T04:03:26.406Z,26.19
2022-08-26T04:03:56.692Z,26.19
2022-08-26T04:04:28.231Z,26.20
2022-08-26T04:04:58.210Z,26.19
2022-08-26T04:05:28.314Z,26.20
2022-08-26T04:05:58.347Z,26.20
2022-08-26T04:06:28.364Z,26.19
2022-08-26T04:06:58.406Z,26.19
2022-08-26T04:07:28.437Z,26.16
2022-08-26T04:08:01.972Z,26.19
2022-08-26T04:08:31.967Z,26.19
2022-08-26T04:09:01.950Z,26.19
2022-08-26T04:09:35.261Z,26.19
2022-08-26T04:10:05.449Z,26.19
2022-08-26T04:10:35.429Z,26.19
2022-08-26T04:11:05.401Z,26.19
2022-08-26T04:11:35.458Z,26.19
2022-08-26T04:12:08.660Z,26.20
2022-08-26T04:12:38.642Z,26.19
2022-08-26T04:13:08.879Z,26.19
2022-08-26T04:13:38.972Z,26.19
2022-08-26T04:14:10.048Z,26.19
2022-08-26T04:14:40.031Z,26.19
2022-08-26T04:15:10.012Z,26.19
2022-08-26T04:15:40.004Z,26.16
2022-08-26T04:16:10.259Z,26.19
2022-08-26T04:16:40.386Z,26.19
2022-08-26T04:17:10.379Z,26.19
2022-08-26T04:17:40.375Z,26.19
2022-08-26T04:18:10.527Z,26.19
2022-08-26T04:18:40.596Z,26.16
2022-08-26T04:19:15.439Z,26.20
2022-08-26T04:19:45.418Z,26.15
2022-08-26T04:20:16.238Z,26.19
2022-08-26T04:20:46.353Z,26.19
2022-08-26T04:21:16.339Z,26.16
2022-08-26T04:21:46.319Z,26.19
2022-08-26T04:22:16.295Z,26.19
2022-08-26T04:22:51.221Z,26.19
2022-08-26T04:23:21.212Z,26.19
2022-08-26T04:23:51.207Z,26.19
2022-08-26T04:24:21.193Z,26.20
2022-08-26T04:24:51.489Z,26.19
2022-08-26T04:25:21.620Z,26.20
2022-08-26T04:25:51.622Z,26.20
2022-08-26T04:26:21.597Z,26.19
2022-08-26T04:26:51.778Z,26.20
2022-08-26T04:27:21.757Z,26.20
2022-08-26T04:27:52.107Z,26.19
2022-08-26T04:28:22.504Z,26.19
2022-08-26T04:28:52.643Z,26.19
2022-08-26T04:29:22.641Z,26.20
2022-08-26T04:29:55.290Z,26.19
2022-08-26T04:30:25.572Z,26.19
2022-08-26T04:30:55.627Z,26.20
2022-08-26T04:31:25.692Z,26.21
2022-08-26T04:31:56.387Z,26.20
2022-08-26T04:32:26.369Z,26.21
2022-08-26T04:32:56.708Z,26.23
2022-08-26T04:33:32.207Z,26.23
2022-08-26T04:34:02.562Z,26.21
2022-08-26T04:34:32.535Z,26.23
2022-08-26T04:35:03.610Z,26.21
2022-08-26T04:35:34.661Z,26.23
2022-08-26T04:36:04.648Z,26.23
2022-08-26T04:36:35.293Z,26.24
2022-08-26T04:37:05.776Z,26.23
2022-08-26T04:37:35.758Z,26.23
2022-08-26T04:38:05.889Z,26.21
2022-08-26T04:38:37.545Z,26.24
2022-08-26T04:39:07.536Z,26.26
2022-08-26T04:39:37.522Z,26.24
2022-08-26T04:40:07.587Z,26.24
2022-08-26T04:40:38.655Z,26.24
2022-08-26T04:41:15.378Z,26.24
2022-08-26T04:41:43.863Z,26.26
2022-08-26T04:42:14.314Z,26.24
2022-08-26T04:42:44.295Z,26.26
2022-08-26T04:43:14.290Z,26.26
2022-08-26T04:43:44.280Z,26.26
2022-08-26T04:44:14.261Z,26.27
2022-08-26T04:44:44.417Z,26.27
2022-08-26T04:45:14.401Z,26.26
2022-08-26T04:45:44.407Z,26.27
2022-08-26T04:46:14.503Z,26.26
2022-08-26T04:46:44.606Z,26.28
2022-08-26T04:47:14.637Z,26.27
2022-08-26T04:47:44.625Z,26.30
2022-08-26T04:48:16.744Z,26.28
2022-08-26T04:48:47.043Z,26.30
2022-08-26T04:49:17.018Z,26.30
2022-08-26T04:49:48.405Z,26.30
2022-08-26T04:50:18.385Z,26.30
2022-08-26T04:50:51.546Z,26.30
2022-08-26T04:51:21.523Z,26.31
2022-08-26T04:51:52.048Z,26.31
2022-08-26T04:52:22.042Z,26.31
2022-08-26T04:52:52.773Z,26.33
2022-08-26T04:53:22.762Z,26.33
2022-08-26T04:53:53.070Z,26.31
2022-08-26T04:54:23.052Z,26.31
2022-08-26T04:54:55.118Z,26.33
2022-08-26T04:55:37.267Z,26.33
2022-08-26T04:56:00.032Z,26.33
2022-08-26T04:56:30.014Z,26.31
2022-08-26T04:56:59.988Z,26.34
2022-08-26T04:57:29.971Z,26.34
2022-08-26T04:57:59.954Z,26.36
2022-08-26T04:58:29.930Z,26.34
2022-08-26T04:58:59.942Z,26.38
2022-08-26T04:59:29.921Z,26.38
2022-08-26T04:59:59.896Z,26.38
2022-08-26T05:00:29.880Z,26.39
2022-08-26T05:00:59.884Z,26.39
2022-08-26T05:01:29.956Z,26.39
2022-08-26T05:02:00.066Z,26.41
2022-08-26T05:02:30.087Z,26.39
2022-08-26T05:03:00.087Z,26.41
2022-08-26T05:03:30.527Z,26.41
2022-08-26T05:04:01.203Z,26.41
2022-08-26T05:04:34.969Z,26.42
2022-08-26T05:05:04.951Z,26.42
2022-08-26T05:05:34.928Z,26.43
2022-08-26T05:06:05.291Z,26.45
2022-08-26T05:06:36.902Z,26.43
2022-08-26T05:07:07.202Z,26.45
2022-08-26T05:07:37.189Z,26.45
2022-08-26T05:08:07.172Z,26.46
2022-08-26T05:08:38.906Z,26.45
2022-08-26T05:09:10.987Z,26.46
2022-08-26T05:09:40.960Z,26.46
2022-08-26T05:10:10.936Z,26.49
2022-08-26T05:10:40.922Z,26.48
2022-08-26T05:11:10.914Z,26.49
2022-08-26T05:11:40.899Z,26.48
2022-08-26T05:12:11.451Z,26.49
2022-08-26T05:12:41.678Z,26.49
2022-08-26T05:13:15.708Z,26.52
2022-08-26T05:13:45.847Z,26.52
2022-08-26T05:14:16.790Z,26.53
2022-08-26T05:14:46.787Z,26.52
2022-08-26T05:15:16.948Z,26.53
2022-08-26T05:15:47.314Z,26.56
2022-08-26T05:16:17.488Z,26.57
2022-08-26T05:16:47.728Z,26.56
2022-08-26T05:17:17.831Z,26.58
2022-08-26T05:17:47.810Z,26.58
2022-08-26T05:18:17.792Z,26.58
2022-08-26T05:18:50.030Z,26.61
2022-08-26T05:19:20.007Z,26.60
2022-08-26T05:19:51.202Z,26.61
2022-08-26T05:20:25.232Z,26.61
2022-08-26T05:20:56.112Z,26.61
2022-08-26T05:21:26.095Z,26.63
2022-08-26T05:21:57.048Z,26.64
2022-08-26T05:22:27.026Z,26.63
2022-08-26T05:22:57.010Z,26.64
2022-08-26T05:23:27.010Z,26.67
2022-08-26T05:23:57.014Z,26.65
2022-08-26T05:24:27.011Z,26.68
2022-08-26T05:24:57.359Z,26.67
2022-08-26T05:25:27.526Z,26.68
2022-08-26T05:26:00.336Z,26.68
2022-08-26T05:26:30.567Z,26.70
2022-08-26T05:27:00.551Z,26.70
2022-08-26T05:27:30.538Z,26.70
2022-08-26T05:28:00.578Z,26.70
2022-08-26T05:28:30.565Z,26.70
2022-08-26T05:29:00.538Z,26.71
2022-08-26T05:29:30.515Z,26.73
2022-08-26T05:30:00.505Z,26.75
2022-08-26T05:30:31.146Z,26.75
2022-08-26T05:31:01.252Z,26.75
2022-08-26T05:31:31.371Z,26.78
2022-08-26T05:32:01.400Z,26.76
2022-08-26T05:32:31.382Z,26.79
2022-08-26T05:33:01.366Z,26.78
2022-08-26T05:33:32.750Z,26.79
2022-08-26T05:34:03.585Z,26.80
2022-08-26T05:34:33.869Z,26.80
2022-08-26T05:35:03.864Z,26.82
2022-08-26T05:35:38.784Z,26.83
2022-08-26T05:36:08.766Z,26.82
2022-08-26T05:36:39.258Z,26.83
2022-08-26T05:37:09.232Z,26.83
2022-08-26T05:37:39.233Z,26.86
2022-08-26T05:38:12.431Z,26.88
2022-08-26T05:38:42.878Z,26.88
2022-08-26T05:39:14.004Z,26.89
2022-08-26T05:39:51.122Z,26.90
2022-08-26T05:40:19.104Z,26.93
2022-08-26T05:40:49.522Z,26.93
2022-08-26T05:41:22.969Z,26.93
2022-08-26T05:41:52.959Z,26.95
2022-08-26T05:42:22.932Z,26.95
2022-08-26T05:42:52.910Z,26.97
2022-08-26T05:43:22.888Z,26.97
2022-08-26T05:43:52.871Z,26.98
2022-08-26T05:44:22.856Z,27.00
2022-08-26T05:44:55.332Z,27.00
2022-08-26T05:45:26.112Z,27.01
2022-08-26T05:45:56.190Z,27.03
2022-08-26T05:46:26.261Z,27.03
2022-08-26T05:46:56.699Z,27.04
2022-08-26T05:47:26.685Z,27.05
2022-08-26T05:47:57.053Z,27.07
2022-08-26T05:48:27.057Z,27.08
2022-08-26T05:48:57.067Z,27.10
2022-08-26T05:49:27.066Z,27.12
2022-08-26T05:49:57.185Z,27.13
2022-08-26T05:50:27.198Z,27.13
2022-08-26T05:50:57.187Z,27.15
2022-08-26T05:51:27.276Z,27.16
2022-08-26T05:52:00.506Z,27.19
2022-08-26T05:52:30.512Z,27.20
2022-08-26T05:53:00.702Z,27.19
2022-08-26T05:53:31.958Z,27.22
2022-08-26T05:54:02.131Z,27.23
2022-08-26T05:54:33.636Z,27.25
2022-08-26T05:55:03.642Z,27.26
2022-08-26T05:55:33.654Z,27.26
2022-08-26T05:56:04.103Z,27.27
2022-08-26T05:56:34.080Z,27.30
2022-08-26T05:57:04.711Z,27.30
2022-08-26T05:57:39.967Z,27.30
2022-08-26T05:58:09.784Z,27.34
2022-08-26T05:58:39.808Z,27.34
2022-08-26T05:59:14.170Z,27.37
2022-08-26T05:59:44.603Z,27.40
2022-08-26T06:00:15.977Z,27.42
2022-08-26T06:00:45.982Z,27.45
2022-08-26T06:01:16.041Z,27.52
2022-08-26T06:01:46.434Z,27.53
2022-08-26T06:02:16.462Z,27.58
2022-08-26T06:02:48.406Z,27.63
2022-08-26T06:03:18.620Z,27.66
2022-08-26T06:03:48.974Z,27.68
2022-08-26T06:04:20.013Z,27.70
2022-08-26T06:04:50.275Z,27.73
2022-08-26T06:05:21.895Z,27.78
2022-08-26T06:05:52.108Z,27.79
2022-08-26T06:06:27.529Z,27.82
2022-08-26T06:06:57.199Z,27.87
2022-08-26T06:07:27.386Z,27.90
2022-08-26T06:07:57.570Z,27.91
2022-08-26T06:08:27.580Z,27.95
2022-08-26T06:08:57.709Z,27.95
2022-08-26T06:09:27.717Z,28.00
2022-08-26T06:10:21.388Z,28.01
2022-08-26T06:10:33.121Z,28.05
2022-08-26T06:11:03.250Z,28.06
2022-08-26T06:11:35.396Z,28.09
2022-08-26T06:12:05.376Z,28.10
2022-08-26T06:12:35.359Z,28.12
2022-08-26T06:13:09.188Z,28.10
2022-08-26T06:13:40.384Z,28.15
2022-08-26T06:14:10.401Z,28.13
2022-08-26T06:14:40.403Z,28.16
2022-08-26T06:15:10.411Z,28.16
2022-08-26T06:15:41.933Z,28.17
2022-08-26T06:16:12.207Z,28.17
2022-08-26T06:16:42.563Z,28.20
2022-08-26T06:17:12.567Z,28.22
2022-08-26T06:17:42.985Z,28.24
2022-08-26T06:18:12.969Z,28.25
2022-08-26T06:18:42.985Z,28.27
2022-08-26T06:19:12.967Z,28.28
2022-08-26T06:19:42.944Z,28.30
2022-08-26T06:20:12.951Z,28.31
2022-08-26T06:20:42.962Z,28.34
2022-08-26T06:21:17.884Z,28.35
2022-08-26T06:21:47.913Z,28.37
2022-08-26T06:22:23.472Z,28.38
2022-08-26T06:22:53.806Z,28.42
2022-08-26T06:23:23.809Z,28.42
2022-08-26T06:23:53.822Z,28.44
2022-08-26T06:24:26.871Z,28.47
2022-08-26T06:24:57.367Z,28.49
2022-08-26T06:25:27.361Z,28.50
2022-08-26T06:25:57.344Z,28.54
2022-08-26T06:26:27.341Z,28.54
2022-08-26T06:26:57.334Z,28.56
2022-08-26T06:27:32.126Z,28.56
2022-08-26T06:28:02.265Z,28.56
2022-08-26T06:28:33.090Z,28.56
2022-08-26T06:29:03.151Z,28.61
2022-08-26T06:29:34.188Z,28.59
2022-08-26T06:30:04.203Z,28.62
2022-08-26T06:30:34.206Z,28.62
2022-08-26T06:31:04.246Z,28.62
2022-08-26T06:31:34.378Z,28.61
2022-08-26T06:32:04.429Z,28.62
2022-08-26T06:32:34.540Z,28.64
2022-08-26T06:33:04.608Z,28.64
2022-08-26T06:33:35.400Z,28.65
2022-08-26T06:34:10.371Z,28.66
2022-08-26T06:34:40.367Z,28.69
2022-08-26T06:35:12.284Z,28.69